createdAt,value
2022-09-30T00:05:32.996Z,97847.44
2022-09-30T00:12:04.931Z,97843.67
2022-09-30T00:17:59.639Z,97832.55
2022-09-30T00:23:53.586Z,97836.73
2022-09-30T00:30:39.952Z,97843.30
2022-09-30T00:37:17.272Z,97860.73
2022-09-30T00:44:08.514Z,97866.34
2022-09-30T00:50:13.814Z,97862.55
2022-09-30T00:56:27.233Z,97862.58
2022-09-30T01:02:54.831Z,97864.69
2022-09-30T01:08:58.577Z,97868.67
2022-09-30T01:15:25.234Z,97865.23
2022-09-30T01:22:18.723Z,97866.18
2022-09-30T01:29:15.382Z,97871.66
2022-09-30T01:35:58.603Z,97867.69
2022-09-30T01:42:58.672Z,97880.20
2022-09-30T01:49:58.057Z,97875.34
2022-09-30T01:56:50.043Z,97880.61
2022-09-30T02:03:41.456Z,97879.17
2022-09-30T02:10:50.974Z,97875.58
2022-09-30T02:17:56.917Z,97884.55
2022-09-30T02:25:00.232Z,97890.00
2022-09-30T02:31:25.215Z,97884.11
2022-09-30T02:38:20.416Z,97887.88
2022-09-30T02:45:05.212Z,97893.55
2022-09-30T02:52:30.422Z,97890.44
2022-09-30T02:59:34.279Z,97896.56
2022-09-30T03:06:26.327Z,97898.09
2022-09-30T03:13:03.259Z,97895.34
2022-09-30T03:20:12.580Z,97908.00
2022-09-30T03:26:50.442Z,97913.16
2022-09-30T03:33:49.632Z,97909.77
2022-09-30T03:40:26.841Z,97902.73
2022-09-30T03:47:10.263Z,97897.78
2022-09-30T03:54:08.844Z,97894.15
2022-09-30T04:00:05.293Z,97905.42
2022-09-30T04:05:30.751Z,97912.23
2022-09-30T04:11:33.647Z,97907.92
2022-09-30T04:18:23.064Z,97904.14
2022-09-30T04:24:40.040Z,97905.52
2022-09-30T04:31:32.680Z,97906.06
2022-09-30T04:37:17.651Z,97913.33
2022-09-30T04:42:51.473Z,97925.45
2022-09-30T04:48:01.720Z,97937.39
2022-09-30T04:53:47.263Z,97939.25
2022-09-30T04:59:00.918Z,97933.94
2022-09-30T05:04:36.603Z,97935.06
2022-09-30T05:10:12.032Z,97934.70
2022-09-30T05:16:25.552Z,97938.14
2022-09-30T05:22:29.907Z,97942.98
2022-09-30T05:28:41.268Z,97953.83
2022-09-30T05:35:14.665Z,97955.58
2022-09-30T05:40:43.288Z,97964.84
2022-09-30T05:46:57.348Z,97972.33
2022-09-30T05:53:18.964Z,97981.13
2022-09-30T05:59:49.943Z,97983.86
2022-09-30T06:05:12.864Z,97982.88
2022-09-30T06:11:49.628Z,97983.04
2022-09-30T06:17:06.907Z,97990.05
2022-09-30T06:22:49.860Z,97999.44
2022-09-30T06:28:23.644Z,98006.13
2022-09-30T06:33:51.625Z,98007.75
2022-09-30T06:40:40.975Z,98012.92
2022-09-30T06:46:53.092Z,98019.04
2022-09-30T06:53:05.549Z,98023.70
2022-09-30T06:58:13.498Z,98023.63
2022-09-30T07:03:49.354Z,98025.41
2022-09-30T07:09:22.915Z,98026.42
2022-09-30T07:14:36.040Z,98022.75
2022-09-30T07:20:21.743Z,98024.31
2022-09-30T07:26:50.730Z,98023.16
2022-09-30T07:32:26.220Z,98032.44
2022-09-30T07:38:30.161Z,98034.98
2022-09-30T07:44:22.190Z,98034.17
2022-09-30T07:49:46.776Z,98041.92
2022-09-30T07:55:49.920Z,98044.20
2022-09-30T08:01:42.110Z,98047.80
2022-09-30T08:07:47.708Z,98055.83
2022-09-30T08:14:15.438Z,98058.59
2022-09-30T08:19:51.768Z,98061.72
2022-09-30T08:25:23.298Z,98067.23
2022-09-30T08:30:25.512Z,98076.83
2022-09-30T08:36:00.388Z,98086.89
2022-09-30T08:41:14.530Z,98082.40
2022-09-30T08:47:07.601Z,98087.77
2022-09-30T08:52:55.453Z,98089.95
2022-09-30T08:58:47.804Z,98094.73
2022-09-30T09:04:21.272Z,98093.81
2022-09-30T09:10:13.359Z,98094.36
2022-09-30T09:16:37.108Z,98098.20
2022-09-30T09:22:25.950Z,98094.66
2022-09-30T09:28:38.571Z,98094.84
2022-09-30T09:33:52.841Z,98106.32
2022-09-30T09:39:51.901Z,98104.05
2022-09-30T09:45:59.918Z,98106.36
2022-09-30T09:51:41.013Z,98113.62
2022-09-30T09:57:51.417Z,98118.27
2022-09-30T10:03:22.078Z,98123.96
2022-09-30T10:08:49.855Z,98123.17
2022-09-30T10:14:42.676Z,98128.21
2022-09-30T10:20:24.313Z,98132.77
2022-09-30T10:25:46.261Z,98135.98
2022-09-30T10:30:58.088Z,98142.02
2022-09-30T10:36:21.324Z,98148.85
2022-09-30T10:41:51.957Z,98150.29
2022-09-30T10:47:07.317Z,98146.36
2022-09-30T10:52:33.118Z,98150.20
2022-09-30T10:57:41.760Z,98154.39
2022-09-30T11:03:21.222Z,98157.41
2022-09-30T11:08:45.708Z,98167.15
2022-09-30T11:14:30.545Z,98167.26
2022-09-30T11:20:12.320Z,98176.61
2022-09-30T11:26:24.198Z,98178.28
2022-09-30T11:32:35.934Z,98176.84
2022-09-30T11:38:39.268Z,98180.92
2022-09-30T11:44:08.035Z,98183.95
2022-09-30T11:50:01.119Z,98192.96
2022-09-30T11:55:37.278Z,98196.67
2022-09-30T12:01:34.575Z,98189.80
2022-09-30T12:06:47.884Z,98202.09
2022-09-30T12:11:57.395Z,98205.08
2022-09-30T12:17:05.331Z,98204.13
2022-09-30T12:22:41.110Z,98206.23
2022-09-30T12:27:54.496Z,98213.39
2022-09-30T12:33:31.087Z,98218.65
2022-09-30T12:38:55.397Z,98225.25
2022-09-30T12:44:05.906Z,98230.05
2022-09-30T12:49:15.756Z,98231.34
2022-09-30T12:54:50.081Z,98237.80
2022-09-30T13:00:01.198Z,98243.14
2022-09-30T13:05:34.941Z,98250.72
2022-09-30T13:11:31.888Z,98250.45
2022-09-30T13:17:55.670Z,98255.36
2022-09-30T13:23:39.928Z,98255.16
2022-09-30T13:28:45.716Z,98260.52
2022-09-30T13:34:21.872Z,98261.61
2022-09-30T13:40:03.851Z,98263.45
2022-09-30T13:45:21.795Z,98270.39
2022-09-30T13:50:28.212Z,98271.69
2022-09-30T13:55:47.663Z,98265.06
2022-09-30T14:01:47.292Z,98265.27
2022-09-30T14:07:55.787Z,98259.21
2022-09-30T14:14:37.160Z,98258.13
2022-09-30T14:21:00.468Z,98261.44
2022-09-30T14:27:06.100Z,98261.39
2022-09-30T14:32:35.475Z,98268.15
2022-09-30T14:38:29.535Z,98268.23
2022-09-30T14:44:14.325Z,98279.02
2022-09-30T14:49:28.630Z,98288.58
2022-09-30T14:54:33.968Z,98299.52
2022-09-30T14:59:47.022Z,98297.60
2022-09-30T15:05:00.441Z,98312.05
2022-09-30T15:10:06.448Z,98330.17
2022-09-30T15:15:40.649Z,98327.62
2022-09-30T15:20:44.326Z,98314.98
2022-09-30T15:25:52.246Z,98321.60
2022-09-30T15:30:58.509Z,98329.84
2022-09-30T15:36:34.655Z,98322.15
2022-09-30T15:41:42.376Z,98328.56
2022-09-30T15:47:29.287Z,98332.81
2022-09-30T15:53:05.496Z,98341.93
2022-09-30T15:59:00.578Z,98337.53
2022-09-30T16:04:06.652Z,98339.85
2022-09-30T16:09:21.263Z,98350.45
2022-09-30T16:14:32.797Z,98358.06
2022-09-30T16:19:35.927Z,98359.08
2022-09-30T16:24:43.344Z,98358.80
2022-09-30T16:30:06.922Z,98363.47
2022-09-30T16:35:18.309Z,98363.86
2022-09-30T16:40:55.063Z,98374.52
2022-09-30T16:46:22.524Z,98383.05
2022-09-30T16:51:39.166Z,98377.34
2022-09-30T16:57:14.845Z,98378.56
2022-09-30T17:02:22.907Z,98362.96
2022-09-30T17:07:27.414Z,98369.52
2022-09-30T17:12:32.376Z,98371.21
2022-09-30T17:17:47.827Z,98374.55
2022-09-30T17:22:57.546Z,98385.02
2022-09-30T17:28:01.451Z,98387.64
2022-09-30T17:33:10.138Z,98389.97
2022-09-30T17:38:15.656Z,98398.81
2022-09-30T17:43:26.476Z,98405.76
2022-09-30T17:48:34.866Z,98407.94
2022-09-30T17:53:38.546Z,98413.00
2022-09-30T17:58:43.245Z,98422.24
2022-09-30T18:03:53.666Z,98426.98
2022-09-30T18:09:16.464Z,98435.60
2022-09-30T18:14:20.585Z,98444.33
2022-09-30T18:19:24.500Z,98448.30
2022-09-30T18:24:48.409Z,98464.82
2022-09-30T18:29:54.595Z,98467.64
2022-09-30T18:34:58.427Z,98466.73
2022-09-30T18:40:04.814Z,98458.95
2022-09-30T18:45:09.596Z,98456.05
2022-09-30T18:50:16.290Z,98456.34
2022-09-30T18:55:22.932Z,98462.26
2022-09-30T19:00:34.935Z,98456.99
2022-09-30T19:05:50.666Z,98470.03
2022-09-30T19:10:56.035Z,98471.53
2022-09-30T19:16:11.455Z,98465.69
2022-09-30T19:21:17.677Z,98457.61
2022-09-30T19:26:20.138Z,98455.61
2022-09-30T19:31:45.016Z,98458.02
2022-09-30T19:37:00.839Z,98456.61
2022-09-30T19:42:06.264Z,98457.17
2022-09-30T19:47:17.100Z,98447.08
2022-09-30T19:52:51.955Z,98456.29
2022-09-30T19:58:02.641Z,98453.56
2022-09-30T20:03:08.634Z,98461.38
2022-09-30T20:08:13.536Z,98470.15
2022-09-30T20:13:17.344Z,98469.73
2022-09-30T20:18:22.228Z,98464.51
2022-09-30T20:23:25.391Z,98457.52
2022-09-30T20:28:31.816Z,98453.31
2022-09-30T20:33:37.172Z,98454.66
2022-09-30T20:38:40.514Z,98454.42
2022-09-30T20:44:13.625Z,98450.30
2022-09-30T20:49:19.384Z,98457.20
2022-09-30T20:54:35.581Z,98457.23
2022-09-30T21:00:06.692Z,98453.14
2022-09-30T21:05:32.047Z,98451.46
2022-09-30T21:10:37.372Z,98454.67
2022-09-30T21:16:01.185Z,98456.61
2022-09-30T21:21:20.114Z,98455.38
2022-09-30T21:26:23.697Z,98448.08
2022-09-30T21:31:47.355Z,98445.88
2022-09-30T21:37:02.916Z,98460.56
2022-09-30T21:42:08.305Z,98467.35
2022-09-30T21:47:33.535Z,98469.35
2022-09-30T21:53:00.056Z,98468.60
2022-09-30T21:58:02.461Z,98457.54
2022-09-30T22:03:05.672Z,98454.82
2022-09-30T22:08:33.324Z,98454.56
2022-09-30T22:13:36.460Z,98447.27
2022-09-30T22:18:39.278Z,98441.59
2022-09-30T22:23:43.467Z,98445.24
2022-09-30T22:28:48.276Z,98442.94
2022-09-30T22:34:13.272Z,98441.73
2022-09-30T22:39:18.551Z,98447.65
2022-09-30T22:44:26.398Z,98439.98
2022-09-30T22:49:32.512Z,98446.50
2022-09-30T22:54:36.656Z,98449.26
2022-09-30T22:59:38.949Z,98453.48
2022-09-30T23:04:45.584Z,98450.23
2022-09-30T23:09:51.192Z,98454.42
2022-09-30T23:15:01.248Z,98460.67
2022-09-30T23:20:08.674Z,98462.45
2022-09-30T23:25:32.739Z,98455.98
2022-09-30T23:30:38.430Z,98458.30
2022-09-30T23:35:49.489Z,98446.17
2022-09-30T23:40:55.744Z,98449.70
2022-09-30T23:45:58.575Z,98454.60
2022-09-30T23:51:08.382Z,98456.27
2022-09-30T23:57:12.883Z,98449.00
